createdAt,value
2019-04-29T00:02:30.229Z,83.39
2019-04-29T00:07:25.256Z,83.16
2019-04-29T00:12:21.597Z,83.77
2019-04-29T00:17:17.897Z,83.64
2019-04-29T00:22:12.567Z,83.69
2019-04-29T00:27:07.931Z,83.55
2019-04-29T00:32:02.580Z,83.30
2019-04-29T00:37:04.930Z,83.50
2019-04-29T00:42:01.138Z,84.60
2019-04-29T00:46:55.725Z,83.73
2019-04-29T00:51:50.322Z,83.79
2019-04-29T00:56:44.902Z,83.47
2019-04-29T01:01:39.932Z,83.70
2019-04-29T01:06:34.518Z,82.32
2019-04-29T01:11:29.256Z,82.73
2019-04-29T01:16:23.821Z,82.33
2019-04-29T01:21:18.431Z,82.43
2019-04-29T01:26:15.090Z,82.03
2019-04-29T01:31:11.896Z,82.94
2019-04-29T01:36:08.240Z,83.25
2019-04-29T01:41:04.481Z,83.43
2019-04-29T01:45:59.079Z,83.97
2019-04-29T01:50:53.663Z,84.64
2019-04-29T01:55:48.252Z,84.12
2019-04-29T02:00:42.844Z,84.10
2019-04-29T02:05:37.438Z,84.00
2019-04-29T02:10:33.650Z,84.36
2019-04-29T02:15:28.234Z,83.93
2019-04-29T02:20:22.901Z,84.19
2019-04-29T02:25:19.141Z,84.48
2019-04-29T02:30:21.317Z,84.20
2019-04-29T02:35:15.897Z,85.45
2019-04-29T02:40:12.542Z,85.02
2019-04-29T02:45:13.975Z,84.16
2019-04-29T02:50:09.397Z,84.44
2019-04-29T02:55:06.284Z,84.70
2019-04-29T03:00:08.626Z,84.65
2019-04-29T03:05:20.932Z,85.48
2019-04-29T03:10:16.160Z,85.55
2019-04-29T03:15:11.031Z,85.36
2019-04-29T03:20:09.292Z,85.69
2019-04-29T03:25:03.990Z,85.60
2019-04-29T03:29:58.581Z,86.48
2019-04-29T03:34:53.147Z,86.22
2019-04-29T03:39:47.751Z,86.50
2019-04-29T03:44:42.342Z,86.94
2019-04-29T03:49:36.930Z,85.96
2019-04-29T03:54:31.499Z,85.99
2019-04-29T03:59:26.093Z,85.78
2019-04-29T04:04:38.399Z,86.04
2019-04-29T04:09:33.746Z,86.11
2019-04-29T04:14:28.353Z,85.82
2019-04-29T04:19:24.209Z,85.78
2019-04-29T04:24:18.796Z,86.59
2019-04-29T04:29:13.446Z,86.09
2019-04-29T04:34:08.029Z,85.82
2019-04-29T04:39:02.983Z,85.77
2019-04-29T04:43:57.573Z,86.66
2019-04-29T04:48:52.160Z,88.26
2019-04-29T04:53:46.778Z,88.26
2019-04-29T04:58:41.367Z,88.25
2019-04-29T05:03:35.966Z,88.07
2019-04-29T05:08:30.551Z,87.11
2019-04-29T05:13:28.372Z,86.84
2019-04-29T05:18:21.431Z,86.50
2019-04-29T05:23:16.025Z,85.36
2019-04-29T05:28:10.611Z,82.50
2019-04-29T05:33:05.412Z,81.58
2019-04-29T05:38:01.625Z,80.98
2019-04-29T05:42:56.219Z,79.07
2019-04-29T05:47:59.797Z,79.79
2019-04-29T05:53:11.530Z,79.83
2019-04-29T05:58:13.461Z,81.07
2019-04-29T06:03:08.072Z,80.76
2019-04-29T06:08:02.940Z,80.22
2019-04-29T06:12:57.750Z,78.65
2019-04-29T06:17:55.611Z,76.94
2019-04-29T06:22:54.309Z,77.57
2019-04-29T06:27:50.701Z,76.70
2019-04-29T06:32:45.371Z,76.78
2019-04-29T06:37:49.450Z,76.78
2019-04-29T06:42:49.429Z,76.64
2019-04-29T06:47:46.370Z,74.69
2019-04-29T06:52:41.012Z,74.35
2019-04-29T06:57:35.760Z,73.79
2019-04-29T07:02:30.461Z,73.21
2019-04-29T07:07:25.342Z,72.50
2019-04-29T07:12:20.004Z,71.51
2019-04-29T07:17:20.340Z,69.06
2019-04-29T07:22:15.433Z,67.79
2019-04-29T07:27:10.589Z,66.70
2019-04-29T07:32:09.459Z,65.62
2019-04-29T07:37:01.495Z,65.60
2019-04-29T07:41:56.193Z,64.67
2019-04-29T07:46:56.804Z,63.89
2019-04-29T07:51:48.767Z,64.48
2019-04-29T07:56:43.660Z,65.67
2019-04-29T08:01:38.567Z,64.80
2019-04-29T08:06:38.261Z,64.14
2019-04-29T08:11:32.730Z,65.25
2019-04-29T08:16:27.362Z,64.21
2019-04-29T08:21:22.353Z,63.28
2019-04-29T08:26:17.036Z,63.14
2019-04-29T08:31:11.640Z,63.74
2019-04-29T08:36:06.552Z,64.58
2019-04-29T08:41:01.157Z,63.69
2019-04-29T08:45:57.917Z,63.60
2019-04-29T08:50:54.866Z,63.60
2019-04-29T08:55:50.345Z,62.70
2019-04-29T09:00:51.412Z,61.69
2019-04-29T09:06:04.235Z,61.12
2019-04-29T09:10:42.921Z,60.63
2019-04-29T09:15:37.530Z,58.69
2019-04-29T09:20:32.204Z,58.25
2019-04-29T09:25:28.042Z,57.57
2019-04-29T09:30:23.462Z,56.04
2019-04-29T09:35:18.838Z,54.69
2019-04-29T09:40:19.938Z,54.55
2019-04-29T09:45:24.165Z,53.53
2019-04-29T09:50:16.625Z,52.17
2019-04-29T09:55:11.465Z,49.77
2019-04-29T10:00:29.415Z,49.52
2019-04-29T10:05:25.656Z,50.36
2019-04-29T10:10:20.467Z,48.67
2019-04-29T10:15:16.929Z,49.25
2019-04-29T10:20:16.343Z,50.20
2019-04-29T10:25:11.938Z,50.96
2019-04-29T10:30:10.521Z,51.46
2019-04-29T10:35:10.432Z,52.58
2019-04-29T10:40:17.473Z,51.51
2019-04-29T10:45:12.399Z,51.50
2019-04-29T10:50:17.120Z,50.82
2019-04-29T10:55:12.023Z,49.92
2019-04-29T11:00:28.586Z,50.18
2019-04-29T11:05:28.057Z,50.64
2019-04-29T11:10:25.797Z,50.55
2019-04-29T11:15:22.485Z,51.32
2019-04-29T11:20:21.193Z,54.25
2019-04-29T11:25:32.784Z,57.22
2019-04-29T11:30:29.155Z,59.81
2019-04-29T11:35:31.473Z,61.73
2019-04-29T11:40:42.667Z,62.71
2019-04-29T11:45:28.174Z,60.61
2019-04-29T11:50:27.769Z,60.68
2019-04-29T11:55:22.606Z,58.20
2019-04-29T12:00:35.406Z,56.54
2019-04-29T12:05:34.663Z,53.85
2019-04-29T12:10:29.714Z,52.65
2019-04-29T12:15:29.027Z,52.52
2019-04-29T12:20:28.284Z,52.45
2019-04-29T12:25:27.412Z,50.89
2019-04-29T12:30:24.629Z,51.77
2019-04-29T12:35:30.212Z,50.21
2019-04-29T12:40:26.715Z,49.83
2019-04-29T12:45:27.002Z,49.62
2019-04-29T12:50:23.075Z,53.36
2019-04-29T12:55:24.937Z,53.52
2019-04-29T13:00:20.517Z,54.66
2019-04-29T13:05:18.197Z,53.86
2019-04-29T13:10:17.308Z,56.68
2019-04-29T13:15:33.287Z,56.07
2019-04-29T13:20:27.345Z,56.59
2019-04-29T13:25:21.946Z,56.55
2019-04-29T13:30:17.691Z,57.13
2019-04-29T13:35:12.973Z,55.48
2019-04-29T13:40:11.466Z,58.38
2019-04-29T13:45:13.460Z,63.83
2019-04-29T13:50:19.116Z,67.42
2019-04-29T13:55:17.135Z,69.11
2019-04-29T14:00:11.447Z,71.31
2019-04-29T14:05:15.209Z,64.75
2019-04-29T14:10:15.020Z,64.18
2019-04-29T14:15:09.170Z,65.34
2019-04-29T14:20:10.716Z,60.87
2019-04-29T14:25:06.395Z,60.74
2019-04-29T14:30:02.923Z,59.89
2019-04-29T14:35:11.852Z,58.61
2019-04-29T14:40:07.507Z,58.04
2019-04-29T14:45:25.775Z,58.62
2019-04-29T14:50:20.866Z,59.78
2019-04-29T14:55:24.694Z,58.76
2019-04-29T15:00:42.045Z,61.80
2019-04-29T15:05:36.825Z,62.87
2019-04-29T15:10:32.917Z,65.97
2019-04-29T15:15:44.301Z,66.66
2019-04-29T15:20:46.256Z,66.46
2019-04-29T15:25:40.914Z,67.79
2019-04-29T15:30:36.902Z,66.78
2019-04-29T15:35:32.150Z,65.64
2019-04-29T15:40:28.726Z,69.05
2019-04-29T15:45:23.066Z,69.43
2019-04-29T15:50:19.619Z,67.13
2019-04-29T15:55:14.421Z,66.32
2019-04-29T16:00:21.702Z,65.73
2019-04-29T16:05:28.549Z,66.33
2019-04-29T16:10:42.750Z,66.08
2019-04-29T16:15:37.420Z,67.68
2019-04-29T16:20:32.033Z,68.02
2019-04-29T16:25:26.648Z,65.15
2019-04-29T16:30:25.985Z,67.21
2019-04-29T16:35:23.185Z,66.78
2019-04-29T16:40:15.030Z,66.61
2019-04-29T16:45:12.339Z,66.79
2019-04-29T16:50:07.253Z,67.13
2019-04-29T16:55:04.135Z,66.43
2019-04-29T16:59:58.156Z,68.30
2019-04-29T17:04:53.181Z,68.78
2019-04-29T17:10:07.224Z,68.27
2019-04-29T17:15:04.478Z,69.39
2019-04-29T17:19:58.145Z,70.77
2019-04-29T17:24:52.743Z,70.54
2019-04-29T17:29:55.446Z,70.73
2019-04-29T17:34:58.591Z,71.55
2019-04-29T17:39:47.451Z,71.58
2019-04-29T17:44:41.846Z,72.92
2019-04-29T17:49:54.399Z,73.55
2019-04-29T17:54:59.827Z,73.37
2019-04-29T18:00:12.183Z,71.84
2019-04-29T18:05:16.873Z,72.77
2019-04-29T18:10:29.400Z,73.32
2019-04-29T18:15:25.721Z,73.33
2019-04-29T18:20:33.412Z,73.72
2019-04-29T18:25:46.925Z,74.55
2019-04-29T18:30:41.959Z,73.37
2019-04-29T18:35:36.891Z,74.88
2019-04-29T18:40:35.534Z,76.49
2019-04-29T18:45:29.969Z,76.62
2019-04-29T18:50:24.889Z,77.08
2019-04-29T18:55:19.798Z,78.61
2019-04-29T19:00:20.065Z,78.51
2019-04-29T19:05:17.527Z,78.56
2019-04-29T19:10:14.368Z,79.97
2019-04-29T19:15:11.715Z,78.99
2019-04-29T19:20:12.860Z,79.12
2019-04-29T19:25:10.462Z,80.00
2019-04-29T19:30:05.246Z,80.63
2019-04-29T19:34:59.780Z,81.45
2019-04-29T19:39:58.279Z,80.53
2019-04-29T19:44:51.090Z,79.94
2019-04-29T19:49:46.035Z,79.99
2019-04-29T19:54:40.877Z,79.57
2019-04-29T19:59:36.777Z,79.16
2019-04-29T20:04:53.768Z,79.56
2019-04-29T20:10:04.112Z,80.18
2019-04-29T20:14:58.686Z,79.96
2019-04-29T20:20:00.062Z,79.80
2019-04-29T20:24:55.647Z,79.96
2019-04-29T20:29:50.316Z,80.81
2019-04-29T20:34:46.082Z,80.92
2019-04-29T20:39:41.232Z,81.13
2019-04-29T20:44:36.941Z,81.29
2019-04-29T20:49:37.981Z,82.18
2019-04-29T20:54:29.994Z,81.94
2019-04-29T20:59:25.911Z,82.25
2019-04-29T21:04:31.073Z,82.00
2019-04-29T21:09:17.256Z,82.10
2019-04-29T21:14:16.506Z,81.88
2019-04-29T21:19:11.667Z,82.07
2019-04-29T21:24:13.636Z,81.55
2019-04-29T21:29:02.821Z,81.28
2019-04-29T21:33:58.845Z,81.65
2019-04-29T21:39:02.142Z,81.13
2019-04-29T21:43:57.737Z,81.10
2019-04-29T21:48:52.321Z,81.20
2019-04-29T21:53:46.903Z,80.32
2019-04-29T21:58:41.487Z,79.36
2019-04-29T22:03:36.221Z,80.15
2019-04-29T22:08:31.019Z,80.79
2019-04-29T22:13:25.661Z,80.66
2019-04-29T22:18:20.490Z,79.52
2019-04-29T22:23:17.209Z,80.27
2019-04-29T22:28:16.084Z,80.35
2019-04-29T22:33:08.426Z,80.47
2019-04-29T22:38:03.024Z,80.91
2019-04-29T22:43:11.348Z,80.91
2019-04-29T22:48:16.495Z,80.65
2019-04-29T22:53:07.287Z,80.56
2019-04-29T22:58:00.820Z,79.72
2019-04-29T23:02:57.737Z,79.77
2019-04-29T23:07:52.890Z,79.71
2019-04-29T23:12:49.249Z,79.74
2019-04-29T23:17:47.452Z,79.30
2019-04-29T23:22:56.811Z,79.31
2019-04-29T23:27:52.601Z,80.08
2019-04-29T23:32:47.653Z,79.97
2019-04-29T23:37:42.487Z,80.11
2019-04-29T23:42:37.078Z,79.82
2019-04-29T23:47:31.655Z,80.14
2019-04-29T23:52:26.934Z,80.38
2019-04-29T23:57:29.660Z,80.06
